Time,TemperatureF,DewpointF,PressureIn,WindDirection,WindDirectionDegrees,WindSpeedMPH,WindSpeedGustMPH,Humidity,HourlyPrecipIn,Conditions,Clouds,dailyrainin,SoftwareType,DateUTC
2013-01-29 00:00:00,23.4,20.4,29.93,NE,45,1.1,1.4,88,0.00,CLR,,0.00,WeatherDisplay:10.37,2013-01-29 05:00:00,
2013-01-29 00:03:00,23.4,20.4,29.93,North,360,1.7,1.7,88,0.00,CLR,,0.00,WeatherDisplay:10.37,2013-01-29 05:03:00,
2013-01-29 00:09:00,23.4,20.4,29.93,WNW,292,2.3,2.3,88,0.00,CLR,,0.00,WeatherDisplay:10.37,2013-01-29 05:09:00,
2013-01-29 00:13:00,23.4,20.4,29.93,NE,45,2.7,2.7,88,0.00,CLR,,0.00,WeatherDisplay:10.37,2013-01-29 05:13:00,
2013-01-29 00:19:00,23.4,20.4,29.93,NE,45,1.7,1.7,88,0.00,CLR,,0.00,WeatherDisplay:10.37,2013-01-29 05:19:00,
2013-01-29 00:24:00,23.4,20.4,29.93,North,360,1.7,2.1,88,0.00,CLR,,0.00,WeatherDisplay:10.37,2013-01-29 05:24:00,
2013-01-29 00:29:00,23.4,20.4,29.93,NNE,22,1.1,1.1,88,0.00,CLR,,0.00,WeatherDisplay:10.37,2013-01-29 05:29:00,
2013-01-29 00:34:00,23.4,20.4,29.93,North,360,2.3,2.3,88,0.00,CLR,,0.00,WeatherDisplay:10.37,2013-01-29 05:34:00,
2013-01-29 00:39:00,23.4,20.4,29.93,WNW,292,2.3,2.3,88,0.00,CLR,,0.00,WeatherDisplay:10.37,2013-01-29 05:39:00,
2013-01-29 00:44:00,23.4,20.4,29.93,NW,315,2.3,2.3,88,0.00,CLR,,0.00,WeatherDisplay:10.37,2013-01-29 05:44:00,
2013-01-29 00:49:00,23.4,20.4,29.94,West,270,2.3,2.3,88,0.00,CLR,,0.00,WeatherDisplay:10.37,2013-01-29 05:49:00,
2013-01-29 00:54:00,23.4,20.4,29.94,NW,315,2.3,2.3,88,0.00,CLR,,0.00,WeatherDisplay:10.37,2013-01-29 05:54:00,
2013-01-29 00:59:00,23.4,20.4,29.94,North,360,2.3,2.3,88,0.00,CLR,,0.00,WeatherDisplay:10.37,2013-01-29 05:59:00,
2013-01-29 01:04:00,23.4,20.4,29.94,NE,45,0.0,0.0,88,0.00,CLR,,0.00,WeatherDisplay:10.37,2013-01-29 06:04:00,
2013-01-29 01:09:00,23.4,20.4,29.94,NNE,22,3.7,3.7,88,0.00,CLR,,0.00,WeatherDisplay:10.37,2013-01-29 06:09:00,
2013-01-29 01:14:00,23.2,20.2,29.94,North,360,2.3,2.3,88,0.00,CLR,,0.00,WeatherDisplay:10.37,2013-01-29 06:14:00,
2013-01-29 01:19:00,23.2,20.2,29.94,NNE,22,2.3,2.3,88,0.00,CLR,,0.00,WeatherDisplay:10.37,2013-01-29 06:19:00,
2013-01-29 01:24:00,23.2,20.2,29.94,WNW,292,1.1,1.4,88,0.00,CLR,,0.00,WeatherDisplay:10.37,2013-01-29 06:24:00,
2013-01-29 01:29:00,23.2,20.2,29.94,NNE,22,2.3,2.3,88,0.00,CLR,,0.00,WeatherDisplay:10.37,2013-01-29 06:29:00,
2013-01-29 01:34:00,23.2,20.2,29.94,NE,45,2.3,2.3,88,0.00,CLR,,0.00,WeatherDisplay:10.37,2013-01-29 06:34:00,
2013-01-29 01:39:00,23.2,20.2,29.94,West,270,2.3,2.3,88,0.00,CLR,,0.00,WeatherDisplay:10.37,2013-01-29 06:39:00,
2013-01-29 01:44:00,23.2,20.2,29.94,NW,315,0.0,0.0,88,0.00,CLR,,0.00,WeatherDisplay:10.37,2013-01-29 06:44:00,
2013-01-29 01:49:00,23.2,20.2,29.94,NE,45,0.0,0.0,88,0.00,CLR,,0.00,WeatherDisplay:10.37,2013-01-29 06:49:00,
2013-01-29 01:54:00,23.2,20.2,29.94,NNE,22,0.0,0.0,88,0.00,CLR,,0.00,WeatherDisplay:10.37,2013-01-29 06:54:00,
2013-01-29 01:59:00,23.2,20.2,29.94,NW,315,0.0,0.0,88,0.00,CLR,,0.00,WeatherDisplay:10.37,2013-01-29 06:59:00,
2013-01-29 02:04:00,23.2,20.2,29.95,WNW,292,2.3,2.3,88,0.00,CLR,,0.00,WeatherDisplay:10.37,2013-01-29 07:04:00,
2013-01-29 02:09:00,23.2,20.2,29.95,NE,45,2.3,2.3,88,0.00,CLR,,0.00,WeatherDisplay:10.37,2013-01-29 07:09:00,
2013-01-29 02:14:00,23.2,20.2,29.95,West,270,1.7,1.7,88,0.00,CLR,,0.00,WeatherDisplay:10.37,2013-01-29 07:14:00,
2013-01-29 02:19:00,23.2,20.2,29.95,North,360,2.3,2.3,88,0.00,CLR,,0.00,WeatherDisplay:10.37,2013-01-29 07:19:00,
2013-01-29 02:24:00,23.2,20.2,29.95,NW,315,2.3,2.3,88,0.00,CLR,,0.00,WeatherDisplay:10.37,2013-01-29 07:24:00,
2013-01-29 02:29:00,23.2,20.2,29.95,North,360,2.3,2.3,88,0.00,CLR,,0.00,WeatherDisplay:10.37,2013-01-29 07:29:00,
2013-01-29 02:34:00,23.4,20.4,29.95,NNW,338,2.3,2.3,88,0.00,CLR,,0.00,WeatherDisplay:10.37,2013-01-29 07:34:00,
2013-01-29 02:39:00,23.4,20.4,29.96,NNE,22,2.3,2.3,88,0.00,CLR,,0.00,WeatherDisplay:10.37,2013-01-29 07:39:00,
2013-01-29 02:44:00,23.4,20.4,29.96,NE,45,1.1,1.6,88,0.00,CLR,,0.00,WeatherDisplay:10.37,2013-01-29 07:44:00,
2013-01-29 02:49:00,23.4,20.4,29.96,ENE,68,3.5,3.5,88,0.00,CLR,,0.00,WeatherDisplay:10.37,2013-01-29 07:49:00,
2013-01-29 02:54:00,23.4,20.4,29.96,NNW,338,2.3,2.3,88,0.00,CLR,,0.00,WeatherDisplay:10.37,2013-01-29 07:54:00,
2013-01-29 02:59:00,23.4,20.4,29.96,NNE,22,2.3,2.3,88,0.00,CLR,,0.00,WeatherDisplay:10.37,2013-01-29 07:59:00,
2013-01-29 03:04:00,23.4,20.4,29.96,WNW,292,3.5,3.5,88,0.00,CLR,,0.00,WeatherDisplay:10.37,2013-01-29 08:04:00,
2013-01-29 03:09:00,23.4,20.4,29.96,WNW,292,2.3,2.3,88,0.00,CLR,,0.00,WeatherDisplay:10.37,2013-01-29 08:09:00,
2013-01-29 03:14:00,23.4,20.4,29.96,WNW,292,2.3,2.3,88,0.00,CLR,,0.00,WeatherDisplay:10.37,2013-01-29 08:14:00,
2013-01-29 03:19:00,23.4,20.4,29.96,North,360,2.3,2.3,88,0.00,CLR,,0.00,WeatherDisplay:10.37,2013-01-29 08:19:00,
2013-01-29 03:24:00,23.4,20.4,29.96,WNW,292,2.3,2.3,88,0.00,CLR,,0.00,WeatherDisplay:10.37,2013-01-29 08:24:00,
2013-01-29 03:29:00,23.4,20.4,29.97,NW,315,2.3,2.4,88,0.00,CLR,,0.00,WeatherDisplay:10.37,2013-01-29 08:29:00,
2013-01-29 03:34:00,23.4,20.4,29.97,NNW,338,3.5,3.5,88,0.00,CLR,,0.00,WeatherDisplay:10.37,2013-01-29 08:34:00,
2013-01-29 03:39:00,23.4,20.4,29.96,NNE,22,2.3,2.3,88,0.00,CLR,,0.00,WeatherDisplay:10.37,2013-01-29 08:39:00,
2013-01-29 03:44:00,23.4,20.4,29.96,NW,315,1.7,1.7,88,0.00,CLR,,0.00,WeatherDisplay:10.37,2013-01-29 08:44:00,
2013-01-29 03:49:00,23.4,20.4,29.96,North,360,2.3,2.3,88,0.00,CLR,,0.00,WeatherDisplay:10.37,2013-01-29 08:49:00,
2013-01-29 03:54:00,23.4,20.4,29.96,NNE,22,2.3,2.3,88,0.00,CLR,,0.00,WeatherDisplay:10.37,2013-01-29 08:54:00,
2013-01-29 03:59:00,23.4,20.4,29.96,North,360,3.5,3.5,88,0.00,CLR,,0.00,WeatherDisplay:10.37,2013-01-29 08:59:00,
2013-01-29 04:04:00,23.4,20.4,29.97,NE,45,2.3,2.3,88,0.00,CLR,,0.00,WeatherDisplay:10.37,2013-01-29 09:04:00,
2013-01-29 04:09:00,23.4,20.4,29.97,WNW,292,2.3,2.3,88,0.00,CLR,,0.00,WeatherDisplay:10.37,2013-01-29 09:09:00,
2013-01-29 04:14:00,23.4,20.4,29.97,NE,45,2.3,2.3,88,0.00,CLR,,0.00,WeatherDisplay:10.37,2013-01-29 09:14:00,
2013-01-29 04:19:00,23.4,20.1,29.97,West,270,3.5,3.5,87,0.00,CLR,,0.00,WeatherDisplay:10.37,2013-01-29 09:19:00,
2013-01-29 04:24:00,23.4,20.1,29.97,NNE,22,3.2,3.2,87,0.00,CLR,,0.00,WeatherDisplay:10.37,2013-01-29 09:24:00,
2013-01-29 04:29:00,23.4,20.1,29.97,NW,315,4.6,4.6,87,0.00,CLR,,0.00,WeatherDisplay:10.37,2013-01-29 09:29:00,
2013-01-29 04:34:00,23.4,20.1,29.97,WNW,292,1.1,1.1,87,0.00,CLR,,0.00,WeatherDisplay:10.37,2013-01-29 09:34:00,
2013-01-29 04:39:00,23.4,20.1,29.98,East,90,2.3,2.3,87,0.00,CLR,,0.00,WeatherDisplay:10.37,2013-01-29 09:39:00,
2013-01-29 04:44:00,23.4,19.8,29.98,North,360,2.3,2.3,86,0.00,CLR,,0.00,WeatherDisplay:10.37,2013-01-29 09:44:00,
2013-01-29 04:49:00,23.4,19.8,29.98,NNW,338,2.3,2.6,86,0.00,CLR,,0.00,WeatherDisplay:10.37,2013-01-29 09:49:00,
2013-01-29 04:54:00,23.4,19.8,29.98,NNW,338,2.3,2.5,86,0.00,CLR,,0.00,WeatherDisplay:10.37,2013-01-29 09:54:00,
2013-01-29 04:59:00,23.4,19.8,29.98,WNW,292,2.3,2.3,86,0.00,CLR,,0.00,WeatherDisplay:10.37,2013-01-29 09:59:00,
2013-01-29 05:04:00,23.4,19.8,29.98,NNE,22,2.3,2.3,86,0.00,CLR,,0.00,WeatherDisplay:10.37,2013-01-29 10:04:00,
2013-01-29 05:09:00,23.4,19.8,29.98,WNW,292,3.7,3.7,86,0.00,CLR,,0.00,WeatherDisplay:10.37,2013-01-29 10:09:00,
2013-01-29 05:14:00,23.4,19.8,29.98,NNW,338,2.3,2.3,86,0.00,CLR,,0.00,WeatherDisplay:10.37,2013-01-29 10:14:00,
2013-01-29 05:19:00,23.4,19.8,29.98,NNE,22,2.7,2.7,86,0.00,CLR,,0.00,WeatherDisplay:10.37,2013-01-29 10:19:00,
2013-01-29 05:24:00,23.5,19.9,29.98,WSW,248,2.3,2.3,86,0.00,CLR,,0.00,WeatherDisplay:10.37,2013-01-29 10:24:00,
2013-01-29 05:29:00,23.5,19.9,29.98,NW,315,1.7,1.7,86,0.00,CLR,,0.00,WeatherDisplay:10.37,2013-01-29 10:29:00,
2013-01-29 05:34:00,23.5,19.9,29.98,NNW,338,3.5,3.5,86,0.00,CLR,,0.00,WeatherDisplay:10.37,2013-01-29 10:34:00,
2013-01-29 05:39:00,23.5,19.9,29.99,NNE,22,2.7,2.7,86,0.00,CLR,,0.00,WeatherDisplay:10.37,2013-01-29 10:39:00,
2013-01-29 05:44:00,23.5,19.9,29.99,NNW,338,2.3,2.3,86,0.00,CLR,,0.00,WeatherDisplay:10.37,2013-01-29 10:44:00,
2013-01-29 05:49:00,23.5,19.9,30.00,West,270,3.5,3.5,86,0.00,CLR,,0.00,WeatherDisplay:10.37,2013-01-29 10:49:00,
2013-01-29 05:55:00,23.5,19.9,30.00,NNW,338,2.7,2.7,86,0.00,CLR,,0.00,WeatherDisplay:10.37,2013-01-29 10:55:00,
2013-01-29 06:00:00,23.5,19.9,30.00,South,180,2.3,2.3,86,0.00,CLR,,0.00,WeatherDisplay:10.37,2013-01-29 11:00:00,
2013-01-29 06:05:00,23.5,19.9,29.99,West,270,1.7,1.8,86,0.00,CLR,,0.00,WeatherDisplay:10.37,2013-01-29 11:05:00,
2013-01-29 06:10:00,23.5,19.7,29.99,NNW,347,0.0,2.0,85,0.00,CLR,,0.00,WeatherDisplay:10.37,2013-01-29 11:10:00,
2013-01-29 06:15:00,23.7,19.9,30.00,North,350,2.0,3.0,85,0.00,CLR,,0.00,WeatherDisplay:10.37,2013-01-29 11:15:00,
2013-01-29 06:20:00,23.7,19.9,30.00,West,270,2.3,2.3,85,0.00,CLR,,0.00,WeatherDisplay:10.37,2013-01-29 11:20:00,
2013-01-29 06:25:00,23.7,19.9,30.00,NNW,343,2.0,3.0,85,0.00,CLR,,0.00,WeatherDisplay:10.37,2013-01-29 11:25:00,
2013-01-29 06:30:00,23.7,19.9,30.00,WNW,292,1.1,0.0,85,0.00,CLR,,0.00,WeatherDisplay:10.37,2013-01-29 11:30:00,
2013-01-29 06:35:00,23.9,20.0,30.00,NNE,25,1.0,2.0,85,0.00,CLR,,0.00,WeatherDisplay:10.37,2013-01-29 11:35:00,
2013-01-29 06:40:00,23.9,20.0,30.00,ENE,57,1.0,2.0,85,0.00,CLR,,0.00,WeatherDisplay:10.37,2013-01-29 11:40:00,
2013-01-29 06:45:00,23.9,20.0,30.00,NNE,17,0.0,2.0,85,0.00,CLR,,0.00,WeatherDisplay:10.37,2013-01-29 11:45:00,
2013-01-29 06:50:00,23.9,20.0,30.01,NNW,338,1.0,2.0,85,0.00,CLR,,0.00,WeatherDisplay:10.37,2013-01-29 11:50:00,
2013-01-29 06:55:00,23.9,20.0,30.01,NNW,338,3.2,3.2,85,0.00,CLR,,0.00,WeatherDisplay:10.37,2013-01-29 11:55:00,
2013-01-29 07:00:00,23.9,20.0,30.01,NNE,22,2.3,2.3,85,0.00,CLR,,0.00,WeatherDisplay:10.37,2013-01-29 12:00:00,
2013-01-29 07:05:00,23.9,20.0,30.02,NNW,343,2.0,3.0,85,0.00,CLR,,0.00,WeatherDisplay:10.37,2013-01-29 12:05:00,
2013-01-29 07:10:00,23.9,20.0,30.02,NNW,338,2.7,3.2,85,0.00,CLR,,0.00,WeatherDisplay:10.37,2013-01-29 12:10:00,
2013-01-29 07:15:00,24.1,20.2,30.03,NNW,338,2.3,2.3,85,0.00,CLR,,0.00,WeatherDisplay:10.37,2013-01-29 12:15:00,
2013-01-29 07:20:00,24.2,20.0,30.03,North,5,2.0,2.0,84,0.00,CLR,,0.00,WeatherDisplay:10.37,2013-01-29 12:20:00,
2013-01-29 07:25:00,24.3,20.2,30.03,NNE,22,2.3,2.3,84,0.00,CLR,,0.00,WeatherDisplay:10.37,2013-01-29 12:25:00,
2013-01-29 07:30:00,24.4,20.3,30.03,NW,315,1.7,1.7,84,0.00,CLR,,0.00,WeatherDisplay:10.37,2013-01-29 12:30:00,
2013-01-29 07:35:00,24.4,20.3,30.03,NNW,336,1.0,3.0,84,0.00,CLR,,0.00,WeatherDisplay:10.37,2013-01-29 12:35:00,
2013-01-29 07:40:00,24.6,20.5,30.03,WNW,292,2.2,2.2,84,0.00,CLR,,0.00,WeatherDisplay:10.37,2013-01-29 12:40:00,
2013-01-29 07:45:00,24.4,20.3,30.03,West,270,1.1,1.1,84,0.00,CLR,,0.00,WeatherDisplay:10.37,2013-01-29 12:45:00,
2013-01-29 07:50:00,24.6,20.5,30.04,WNW,288,1.0,2.0,84,0.00,CLR,,0.00,WeatherDisplay:10.37,2013-01-29 12:50:00,
2013-01-29 07:55:00,25.0,20.6,30.04,NNE,22,2.3,2.3,83,0.00,CLR,,0.00,WeatherDisplay:10.37,2013-01-29 12:55:00,
2013-01-29 08:00:00,25.0,20.6,30.04,North,360,2.3,2.3,83,0.00,CLR,,0.00,WeatherDisplay:10.37,2013-01-29 13:00:00,
2013-01-29 08:05:00,25.2,20.8,30.05,West,270,2.3,2.3,83,0.00,CLR,,0.00,WeatherDisplay:10.37,2013-01-29 13:05:00,
2013-01-29 08:10:00,25.3,20.9,30.05,NW,312,2.0,3.0,83,0.00,CLR,,0.00,WeatherDisplay:10.37,2013-01-29 13:10:00,
2013-01-29 08:15:00,25.3,20.9,30.05,NW,316,1.0,3.0,83,0.00,CLR,,0.00,WeatherDisplay:10.37,2013-01-29 13:15:00,
2013-01-29 08:20:00,25.9,20.9,30.05,ESE,112,1.1,0.0,81,0.00,CLR,,0.00,WeatherDisplay:10.37,2013-01-29 13:20:00,
2013-01-29 08:25:00,25.9,20.9,30.05,North,359,2.0,3.0,81,0.00,CLR,,0.00,WeatherDisplay:10.37,2013-01-29 13:25:00,
2013-01-29 08:30:00,26.1,20.8,30.05,North,351,2.0,2.0,80,0.00,CLR,,0.00,WeatherDisplay:10.37,2013-01-29 13:30:00,
2013-01-29 08:35:00,26.2,20.9,30.05,NNW,331,2.0,3.0,80,0.00,CLR,,0.00,WeatherDisplay:10.37,2013-01-29 13:35:00,
2013-01-29 08:40:00,26.4,20.8,30.05,NW,321,3.0,3.0,79,0.00,CLR,,0.00,WeatherDisplay:10.37,2013-01-29 13:40:00,
2013-01-29 08:45:00,26.6,21.0,30.05,NW,319,2.0,3.0,79,0.00,CLR,,0.00,WeatherDisplay:10.37,2013-01-29 13:45:00,
2013-01-29 08:50:00,26.8,21.2,30.06,NNE,22,3.5,3.5,79,0.00,CLR,,0.00,WeatherDisplay:10.37,2013-01-29 13:50:00,
2013-01-29 08:55:00,27.1,20.8,30.06,NNW,348,1.0,3.0,77,0.00,CLR,,0.00,WeatherDisplay:10.37,2013-01-29 13:55:00,
2013-01-29 09:00:00,27.5,21.2,30.06,NW,315,2.3,2.5,77,0.00,CLR,,0.00,WeatherDisplay:10.37,2013-01-29 14:00:00,
2013-01-29 09:05:00,27.9,21.6,30.06,NE,45,2.7,2.7,77,0.00,CLR,,0.00,WeatherDisplay:10.37,2013-01-29 14:05:00,
2013-01-29 09:10:00,28.0,21.4,30.06,WNW,292,3.5,3.5,76,0.00,CLR,,0.00,WeatherDisplay:10.37,2013-01-29 14:10:00,
2013-01-29 09:15:00,28.2,21.6,30.06,WNW,292,2.3,2.3,76,0.00,CLR,,0.00,WeatherDisplay:10.37,2013-01-29 14:15:00,
2013-01-29 09:20:00,28.6,21.7,30.06,WNW,292,2.3,2.3,75,0.00,CLR,,0.00,WeatherDisplay:10.37,2013-01-29 14:20:00,
2013-01-29 09:25:00,28.4,21.5,30.07,North,359,2.0,3.0,75,0.00,CLR,,0.00,WeatherDisplay:10.37,2013-01-29 14:25:00,
2013-01-29 09:30:00,29.5,21.9,30.07,WNW,292,0.0,0.0,73,0.00,CLR,,0.00,WeatherDisplay:10.37,2013-01-29 14:30:00,
2013-01-29 09:35:00,29.8,22.2,30.07,NW,321,0.0,0.0,73,0.00,CLR,,0.00,WeatherDisplay:10.37,2013-01-29 14:35:00,
2013-01-29 09:40:00,29.3,21.7,30.07,NW,314,3.0,3.0,73,0.00,CLR,,0.00,WeatherDisplay:10.37,2013-01-29 14:40:00,
2013-01-29 09:45:00,29.3,22.0,30.07,NNW,338,3.5,3.5,74,0.00,CLR,,0.00,WeatherDisplay:10.37,2013-01-29 14:45:00,
2013-01-29 09:50:00,29.5,22.2,30.07,WNW,292,3.7,3.7,74,0.00,CLR,,0.00,WeatherDisplay:10.37,2013-01-29 14:50:00,
2013-01-29 09:55:00,29.5,22.2,30.07,NW,321,2.0,5.0,74,0.00,CLR,,0.00,WeatherDisplay:10.37,2013-01-29 14:55:00,
2013-01-29 10:00:00,29.7,22.4,30.07,West,270,3.5,3.5,74,0.00,CLR,,0.00,WeatherDisplay:10.37,2013-01-29 15:00:00,
2013-01-29 10:05:00,30.6,23.0,30.07,North,356,2.0,4.0,73,0.00,CLR,,0.00,WeatherDisplay:10.37,2013-01-29 15:05:00,
2013-01-29 10:10:00,30.6,22.7,30.07,North,351,2.0,3.0,72,0.00,CLR,,0.00,WeatherDisplay:10.37,2013-01-29 15:10:00,
2013-01-29 10:15:00,30.6,23.0,30.07,NE,45,4.6,4.6,73,0.00,CLR,,0.00,WeatherDisplay:10.37,2013-01-29 15:15:00,
2013-01-29 10:20:00,30.6,23.0,30.07,NNE,22,3.5,3.5,73,0.00,CLR,,0.00,WeatherDisplay:10.37,2013-01-29 15:20:00,
2013-01-29 10:25:00,30.4,22.8,30.07,NNE,20,3.0,5.0,73,0.00,CLR,,0.00,WeatherDisplay:10.37,2013-01-29 15:25:00,
2013-01-29 10:30:00,30.8,23.2,30.07,NNE,21,2.0,4.0,73,0.00,CLR,,0.00,WeatherDisplay:10.37,2013-01-29 15:30:00,
2013-01-29 10:35:00,31.2,23.2,30.07,North,3,2.0,3.0,72,0.00,CLR,,0.00,WeatherDisplay:10.37,2013-01-29 15:35:00,
2013-01-29 10:40:00,31.3,23.6,30.08,NNE,22,2.7,2.8,73,0.00,CLR,,0.00,WeatherDisplay:10.37,2013-01-29 15:40:00,
2013-01-29 10:45:00,31.3,23.3,30.08,West,270,2.7,2.7,72,0.00,CLR,,0.00,WeatherDisplay:10.37,2013-01-29 15:45:00,
2013-01-29 10:50:00,31.6,23.6,30.08,NNW,332,3.0,4.0,72,0.00,CLR,,0.00,WeatherDisplay:10.37,2013-01-29 15:50:00,
2013-01-29 10:55:00,31.4,23.0,30.08,North,351,2.0,3.0,71,0.00,CLR,,0.00,WeatherDisplay:10.37,2013-01-29 15:55:00,
2013-01-29 11:00:00,31.8,23.5,30.08,NNW,344,2.0,3.0,71,0.00,CLR,,0.00,WeatherDisplay:10.37,2013-01-29 16:00:00,
2013-01-29 11:05:00,32.9,23.8,30.09,NE,45,2.3,2.3,69,0.00,CLR,,0.00,WeatherDisplay:10.37,2013-01-29 16:05:00,
2013-01-29 11:10:00,33.3,24.2,30.09,WNW,292,2.2,2.2,69,0.00,CLR,,0.00,WeatherDisplay:10.37,2013-01-29 16:10:00,
2013-01-29 11:15:00,32.5,23.4,30.09,NW,317,2.0,3.0,69,0.00,CLR,,0.00,WeatherDisplay:10.37,2013-01-29 16:15:00,
2013-01-29 11:20:00,32.7,23.6,30.09,WNW,292,2.7,2.8,69,0.00,CLR,,0.00,WeatherDisplay:10.37,2013-01-29 16:20:00,
2013-01-29 11:25:00,32.9,23.8,30.09,NW,315,2.3,2.3,69,0.00,CLR,,0.00,WeatherDisplay:10.37,2013-01-29 16:25:00,
2013-01-29 11:30:00,33.3,24.2,30.09,NNW,329,1.0,3.0,69,0.00,CLR,,0.00,WeatherDisplay:10.37,2013-01-29 16:30:00,
2013-01-29 11:35:00,33.3,23.9,30.09,NNW,336,2.0,3.0,68,0.00,CLR,,0.00,WeatherDisplay:10.37,2013-01-29 16:35:00,
2013-01-29 11:40:00,33.8,24.0,30.09,NE,45,2.2,2.2,67,0.00,CLR,,0.00,WeatherDisplay:10.37,2013-01-29 16:40:00,
2013-01-29 11:45:00,34.8,24.2,30.09,NNE,17,1.0,2.0,65,0.00,CLR,,0.00,WeatherDisplay:10.37,2013-01-29 16:45:00,
2013-01-29 11:50:00,34.5,24.7,30.09,ENE,68,2.3,2.3,67,0.00,CLR,,0.00,WeatherDisplay:10.37,2013-01-29 16:50:00,
2013-01-29 11:55:00,33.9,24.8,30.09,NE,50,2.0,4.0,69,0.00,CLR,,0.00,WeatherDisplay:10.37,2013-01-29 16:55:00,
2013-01-29 12:00:00,33.6,24.5,30.09,ESE,112,3.2,3.2,69,0.00,CLR,,0.00,WeatherDisplay:10.37,2013-01-29 17:00:00,
2013-01-29 12:05:00,33.8,24.7,30.08,NE,55,2.0,4.0,69,0.00,CLR,,0.00,WeatherDisplay:10.37,2013-01-29 17:05:00,
2013-01-29 12:10:00,34.2,25.1,30.08,NE,45,2.3,2.3,69,0.00,CLR,,0.00,WeatherDisplay:10.37,2013-01-29 17:10:00,
2013-01-29 12:15:00,34.0,24.9,30.07,NNE,22,3.5,3.5,69,0.00,CLR,,0.00,WeatherDisplay:10.37,2013-01-29 17:15:00,
2013-01-29 12:20:00,34.1,25.0,30.07,ENE,70,3.0,3.0,69,0.00,CLR,,0.00,WeatherDisplay:10.37,2013-01-29 17:20:00,
2013-01-29 12:25:00,34.7,24.9,30.07,North,11,1.0,3.0,67,0.00,CLR,,0.00,WeatherDisplay:10.37,2013-01-29 17:25:00,
2013-01-29 12:30:00,35.0,24.4,30.06,North,3,2.0,3.0,65,0.00,CLR,,0.00,WeatherDisplay:10.37,2013-01-29 17:30:00,
2013-01-29 12:35:00,34.7,24.9,30.06,ENE,66,2.0,5.0,67,0.00,CLR,,0.00,WeatherDisplay:10.37,2013-01-29 17:35:00,
2013-01-29 12:40:00,35.5,24.9,30.06,ENE,72,1.0,3.0,65,0.00,CLR,,0.00,WeatherDisplay:10.37,2013-01-29 17:40:00,
2013-01-29 12:45:00,34.9,25.0,30.06,ESE,112,3.5,3.5,67,0.00,CLR,,0.00,WeatherDisplay:10.37,2013-01-29 17:45:00,
2013-01-29 12:50:00,35.2,25.3,30.07,South,180,2.3,2.3,67,0.00,CLR,,0.00,WeatherDisplay:10.37,2013-01-29 17:50:00,
2013-01-29 12:55:00,36.9,25.4,30.07,SE,128,1.0,3.0,63,0.00,CLR,,0.00,WeatherDisplay:10.37,2013-01-29 17:55:00,
2013-01-29 13:00:00,36.3,25.7,30.07,ESE,112,2.3,2.3,65,0.00,CLR,,0.00,WeatherDisplay:10.37,2013-01-29 18:00:00,
2013-01-29 13:05:00,36.1,25.1,30.07,NE,48,2.0,2.0,64,0.00,CLR,,0.00,WeatherDisplay:10.37,2013-01-29 18:05:00,
2013-01-29 13:10:00,36.9,25.1,30.07,North,6,2.0,3.0,62,0.00,CLR,,0.00,WeatherDisplay:10.37,2013-01-29 18:10:00,
2013-01-29 13:15:00,37.4,25.2,30.06,WSW,248,0.0,0.0,61,0.00,CLR,,0.00,WeatherDisplay:10.37,2013-01-29 18:15:00,
2013-01-29 13:20:00,38.4,25.7,30.06,SW,229,0.0,0.0,60,0.00,CLR,,0.00,WeatherDisplay:10.37,2013-01-29 18:20:00,
2013-01-29 13:25:00,36.7,25.7,30.06,WNW,292,0.0,0.0,64,0.00,CLR,,0.00,WeatherDisplay:10.37,2013-01-29 18:25:00,
2013-01-29 13:30:00,38.7,26.0,30.06,NNE,22,0.0,0.0,60,0.00,CLR,,0.00,WeatherDisplay:10.37,2013-01-29 18:30:00,
2013-01-29 13:35:00,38.9,25.4,30.06,NE,34,0.0,0.0,58,0.00,CLR,,0.00,WeatherDisplay:10.37,2013-01-29 18:35:00,
2013-01-29 13:40:00,37.8,25.1,30.05,West,270,2.3,2.3,60,0.00,CLR,,0.00,WeatherDisplay:10.37,2013-01-29 18:40:00,
2013-01-29 13:45:00,37.8,25.5,30.05,East,90,0.0,0.0,61,0.00,CLR,,0.00,WeatherDisplay:10.37,2013-01-29 18:45:00,
2013-01-29 13:50:00,39.0,25.9,30.05,NE,55,1.0,3.0,59,0.00,CLR,,0.00,WeatherDisplay:10.37,2013-01-29 18:50:00,
2013-01-29 13:55:00,37.8,25.5,30.05,East,90,3.5,3.5,61,0.00,CLR,,0.00,WeatherDisplay:10.37,2013-01-29 18:55:00,
2013-01-29 14:00:00,36.0,25.0,30.05,NE,53,2.0,3.0,64,0.00,CLR,,0.00,WeatherDisplay:10.37,2013-01-29 19:00:00,
2013-01-29 14:05:00,36.6,25.2,30.06,NE,53,2.0,3.0,63,0.00,CLR,,0.00,WeatherDisplay:10.37,2013-01-29 19:05:00,
2013-01-29 14:10:00,36.5,25.1,30.06,East,90,3.5,3.5,63,0.00,CLR,,0.00,WeatherDisplay:10.37,2013-01-29 19:10:00,
2013-01-29 14:15:00,36.0,25.4,30.06,NE,45,1.7,1.7,65,0.00,CLR,,0.00,WeatherDisplay:10.37,2013-01-29 19:15:00,
2013-01-29 14:20:00,37.4,26.3,30.06,ESE,112,1.1,0.0,64,0.00,CLR,,0.00,WeatherDisplay:10.37,2013-01-29 19:20:00,
2013-01-29 14:25:00,36.9,25.9,30.06,South,180,1.1,0.0,64,0.00,CLR,,0.00,WeatherDisplay:10.37,2013-01-29 19:25:00,
2013-01-29 14:30:00,36.6,25.6,30.06,South,182,1.0,2.0,64,0.00,CLR,,0.00,WeatherDisplay:10.37,2013-01-29 19:30:00,
2013-01-29 14:35:00,36.7,25.7,30.06,West,270,0.0,0.0,64,0.00,CLR,,0.00,WeatherDisplay:10.37,2013-01-29 19:35:00,
2013-01-29 14:40:00,37.4,25.9,30.07,NNE,22,0.0,0.0,63,0.00,CLR,,0.00,WeatherDisplay:10.37,2013-01-29 19:40:00,
2013-01-29 14:45:00,36.6,25.6,30.07,SSE,155,0.0,0.0,64,0.00,CLR,,0.00,WeatherDisplay:10.37,2013-01-29 19:45:00,
2013-01-29 14:50:00,36.7,25.7,30.06,SSE,158,0.0,0.0,64,0.00,CLR,,0.00,WeatherDisplay:10.37,2013-01-29 19:50:00,
2013-01-29 14:55:00,36.0,25.7,30.06,ESE,112,0.0,0.0,66,0.00,CLR,,0.00,WeatherDisplay:10.37,2013-01-29 19:55:00,
2013-01-29 14:57:00,36.3,26.0,30.06,SSE,158,0.0,0.0,66,0.00,CLR,,0.00,WeatherDisplay:10.37,2013-01-29 19:57:00,
2013-01-29 15:02:00,36.5,26.2,30.06,ESE,112,1.7,1.7,66,0.00,CLR,,0.00,WeatherDisplay:10.37,2013-01-29 20:02:00,
2013-01-29 15:07:00,36.5,25.8,30.06,ESE,112,3.2,3.2,65,0.00,CLR,,0.00,WeatherDisplay:10.37,2013-01-29 20:07:00,
2013-01-29 15:12:00,35.8,25.5,30.06,South,180,2.3,2.3,66,0.00,CLR,,0.00,WeatherDisplay:10.37,2013-01-29 20:12:00,
2013-01-29 15:17:00,35.6,25.7,30.07,ESE,112,4.7,4.7,67,0.00,CLR,,0.00,WeatherDisplay:10.37,2013-01-29 20:17:00,
2013-01-29 15:22:00,34.9,25.8,30.07,ESE,112,3.7,3.7,69,0.00,CLR,,0.00,WeatherDisplay:10.37,2013-01-29 20:22:00,
2013-01-29 15:27:00,34.7,25.6,30.07,ENE,68,3.7,3.7,69,0.00,CLR,,0.00,WeatherDisplay:10.37,2013-01-29 20:27:00,
2013-01-29 15:32:00,34.3,25.2,30.07,ESE,112,3.7,3.7,69,0.00,CLR,,0.00,WeatherDisplay:10.37,2013-01-29 20:32:00,
2013-01-29 15:37:00,34.3,25.5,30.07,ESE,112,2.7,2.7,70,0.00,CLR,,0.00,WeatherDisplay:10.37,2013-01-29 20:37:00,
2013-01-29 15:42:00,34.2,25.4,30.07,ESE,112,4.2,4.2,70,0.00,CLR,,0.00,WeatherDisplay:10.37,2013-01-29 20:42:00,
2013-01-29 15:47:00,34.3,25.5,30.07,SSE,158,2.7,2.7,70,0.00,CLR,,0.00,WeatherDisplay:10.37,2013-01-29 20:47:00,
2013-01-29 15:52:00,34.3,25.9,30.07,SE,135,2.7,2.7,71,0.00,CLR,,0.00,WeatherDisplay:10.37,2013-01-29 20:52:00,
2013-01-29 15:57:00,34.2,25.8,30.07,ESE,112,2.7,2.7,71,0.00,CLR,,0.00,WeatherDisplay:10.37,2013-01-29 20:57:00,
2013-01-29 16:02:00,34.2,25.8,30.07,ESE,112,1.1,1.5,71,0.00,CLR,,0.00,WeatherDisplay:10.37,2013-01-29 21:02:00,
2013-01-29 16:07:00,34.0,25.9,30.07,ESE,112,3.7,3.7,72,0.00,CLR,,0.00,WeatherDisplay:10.37,2013-01-29 21:07:00,
2013-01-29 16:12:00,33.8,26.1,30.07,SE,135,3.7,3.7,73,0.00,CLR,,0.00,WeatherDisplay:10.37,2013-01-29 21:12:00,
2013-01-29 16:18:00,33.8,26.1,30.06,East,90,2.2,2.2,73,0.00,CLR,,0.00,WeatherDisplay:10.37,2013-01-29 21:18:00,
2013-01-29 16:23:00,33.8,26.1,30.06,ESE,112,3.7,3.7,73,0.00,CLR,,0.00,WeatherDisplay:10.37,2013-01-29 21:23:00,
2013-01-29 16:28:00,33.6,26.2,30.06,ESE,112,2.3,2.3,74,0.00,CLR,,0.00,WeatherDisplay:10.37,2013-01-29 21:28:00,
2013-01-29 16:33:00,33.6,26.2,30.06,South,180,2.3,2.3,74,0.00,CLR,,0.00,WeatherDisplay:10.37,2013-01-29 21:33:00,
2013-01-29 16:38:00,33.4,26.0,30.07,SE,135,3.2,3.2,74,0.00,CLR,,0.00,WeatherDisplay:10.37,2013-01-29 21:38:00,
2013-01-29 16:43:00,33.3,25.9,30.07,SSE,158,3.5,3.5,74,0.00,CLR,,0.00,WeatherDisplay:10.37,2013-01-29 21:43:00,
2013-01-29 16:48:00,33.3,26.2,30.07,South,180,0.0,0.0,75,0.00,CLR,,0.00,WeatherDisplay:10.37,2013-01-29 21:48:00,
2013-01-29 16:53:00,33.3,26.2,30.07,SSE,158,1.1,0.0,75,0.00,CLR,,0.00,WeatherDisplay:10.37,2013-01-29 21:53:00,
2013-01-29 16:58:00,33.3,26.2,30.07,SSE,158,0.0,0.0,75,0.00,CLR,,0.00,WeatherDisplay:10.37,2013-01-29 21:58:00,
2013-01-29 17:03:00,33.3,26.2,30.08,West,270,0.0,0.0,75,0.00,CLR,,0.00,WeatherDisplay:10.37,2013-01-29 22:03:00,
2013-01-29 17:08:00,33.1,26.0,30.08,West,270,0.0,0.0,75,0.00,CLR,,0.00,WeatherDisplay:10.37,2013-01-29 22:08:00,
2013-01-29 17:13:00,33.1,26.4,30.07,ESE,112,0.0,0.0,76,0.00,CLR,,0.00,WeatherDisplay:10.37,2013-01-29 22:13:00,
2013-01-29 17:18:00,33.1,26.7,30.07,SE,135,0.0,0.0,77,0.00,CLR,,0.00,WeatherDisplay:10.37,2013-01-29 22:18:00,
2013-01-29 17:23:00,32.9,26.5,30.07,ENE,68,2.3,2.3,77,0.00,CLR,,0.00,WeatherDisplay:10.37,2013-01-29 22:23:00,
2013-01-29 17:28:00,32.9,26.5,30.07,East,90,0.0,0.0,77,0.00,CLR,,0.00,WeatherDisplay:10.37,2013-01-29 22:28:00,
2013-01-29 17:33:00,32.9,26.5,30.07,NE,45,0.0,0.0,77,0.00,CLR,,0.00,WeatherDisplay:10.37,2013-01-29 22:33:00,
2013-01-29 17:38:00,32.7,26.3,30.08,SW,225,1.1,1.5,77,0.00,CLR,,0.00,WeatherDisplay:10.37,2013-01-29 22:38:00,
2013-01-29 17:43:00,32.7,26.3,30.08,South,180,0.0,0.0,77,0.00,CLR,,0.00,WeatherDisplay:10.37,2013-01-29 22:43:00,
2013-01-29 17:48:00,32.7,26.3,30.08,SW,225,0.0,0.0,77,0.00,CLR,,0.00,WeatherDisplay:10.37,2013-01-29 22:48:00,
2013-01-29 17:53:00,32.7,26.3,30.07,East,90,0.0,0.0,77,0.00,CLR,,0.00,WeatherDisplay:10.37,2013-01-29 22:53:00,
2013-01-29 17:58:00,32.7,26.6,30.07,East,90,0.0,0.0,78,0.00,CLR,,0.00,WeatherDisplay:10.37,2013-01-29 22:58:00,
2013-01-29 18:03:00,32.7,26.6,30.08,NNE,22,0.0,0.0,78,0.00,CLR,,0.00,WeatherDisplay:10.37,2013-01-29 23:03:00,
2013-01-29 18:08:00,32.7,26.9,30.08,NW,315,0.0,0.0,79,0.00,CLR,,0.00,WeatherDisplay:10.37,2013-01-29 23:08:00,
2013-01-29 18:13:00,32.7,26.9,30.08,NNE,22,0.0,0.0,79,0.00,CLR,,0.00,WeatherDisplay:10.37,2013-01-29 23:13:00,
2013-01-29 18:18:00,32.7,26.9,30.08,West,270,0.0,0.0,79,0.01,RA,,0.01,WeatherDisplay:10.37,2013-01-29 23:18:00,
2013-01-29 18:23:00,32.5,26.7,30.08,ENE,68,0.0,0.0,79,0.01,RA,,0.01,WeatherDisplay:10.37,2013-01-29 23:23:00,
2013-01-29 18:28:00,32.5,27.0,30.08,NE,45,0.0,0.0,80,0.01,,,0.01,WeatherDisplay:10.37,2013-01-29 23:28:00,
2013-01-29 18:33:00,32.5,27.0,30.08,West,270,0.0,0.0,80,0.01,CLR,,0.01,WeatherDisplay:10.37,2013-01-29 23:33:00,
2013-01-29 18:38:00,32.5,27.0,30.09,NE,45,0.0,0.0,80,0.01,CLR,,0.01,WeatherDisplay:10.37,2013-01-29 23:38:00,
2013-01-29 18:43:00,32.5,27.0,30.09,East,90,0.0,0.0,80,0.01,CLR,,0.01,WeatherDisplay:10.37,2013-01-29 23:43:00,
2013-01-29 18:48:00,32.5,27.3,30.09,ESE,112,0.0,0.0,81,0.01,CLR,,0.01,WeatherDisplay:10.37,2013-01-29 23:48:00,
2013-01-29 18:53:00,32.5,27.3,30.08,NE,45,0.0,0.0,81,0.01,CLR,,0.01,WeatherDisplay:10.37,2013-01-29 23:53:00,
2013-01-29 18:58:00,32.4,27.2,30.08,NNE,22,0.0,0.0,81,0.02,RA,,0.02,WeatherDisplay:10.37,2013-01-29 23:58:00,
2013-01-29 19:03:00,32.4,27.2,30.09,ESE,112,0.0,0.0,81,0.02,RA,,0.02,WeatherDisplay:10.37,2013-01-30 00:03:00,
2013-01-29 19:08:00,32.4,27.2,30.09,South,180,0.0,0.0,81,0.02,CLR,,0.02,WeatherDisplay:10.37,2013-01-30 00:08:00,
2013-01-29 19:13:00,32.4,27.2,30.08,NNE,22,0.0,0.0,81,0.02,CLR,,0.02,WeatherDisplay:10.37,2013-01-30 00:13:00,
2013-01-29 19:18:00,32.4,27.2,30.08,East,90,0.0,0.0,81,0.01,CLR,,0.02,WeatherDisplay:10.37,2013-01-30 00:18:00,
2013-01-29 19:23:00,32.4,27.2,30.08,SE,135,0.0,0.0,81,0.01,CLR,,0.02,WeatherDisplay:10.37,2013-01-30 00:23:00,
2013-01-29 19:28:00,32.4,27.2,30.07,South,180,0.0,0.0,81,0.01,CLR,,0.02,WeatherDisplay:10.37,2013-01-30 00:28:00,
2013-01-29 19:33:00,32.4,27.2,30.07,NNW,338,0.0,0.0,81,0.01,CLR,,0.02,WeatherDisplay:10.37,2013-01-30 00:33:00,
2013-01-29 19:38:00,32.4,27.2,30.07,SE,135,0.0,0.0,81,0.01,CLR,,0.02,WeatherDisplay:10.37,2013-01-30 00:38:00,
2013-01-29 19:43:00,32.4,27.2,30.07,East,90,0.0,0.0,81,0.01,CLR,,0.02,WeatherDisplay:10.37,2013-01-30 00:43:00,
2013-01-29 19:48:00,32.4,27.2,30.07,ESE,112,0.0,0.0,81,0.01,CLR,,0.02,WeatherDisplay:10.37,2013-01-30 00:48:00,
2013-01-29 19:53:00,32.4,27.2,30.07,ESE,112,0.0,0.0,81,0.01,CLR,,0.02,WeatherDisplay:10.37,2013-01-30 00:53:00,
2013-01-29 19:58:00,32.4,27.5,30.07,East,90,0.0,0.0,82,0.01,RA,,0.03,WeatherDisplay:10.37,2013-01-30 00:58:00,
2013-01-29 20:03:00,32.2,27.6,30.06,ENE,68,1.1,1.1,83,0.01,RA,,0.03,WeatherDisplay:10.37,2013-01-30 01:03:00,
2013-01-29 20:08:00,32.2,27.6,30.06,NW,315,0.0,0.0,83,0.01,,,0.03,WeatherDisplay:10.37,2013-01-30 01:08:00,
2013-01-29 20:13:00,32.2,27.6,30.08,West,270,1.1,1.1,83,0.01,CLR,,0.03,WeatherDisplay:10.37,2013-01-30 01:13:00,
2013-01-29 20:18:00,32.2,27.6,30.08,WNW,292,0.0,0.0,83,0.01,CLR,,0.03,WeatherDisplay:10.37,2013-01-30 01:18:00,
2013-01-29 20:23:00,32.2,27.6,30.08,WNW,292,0.0,0.0,83,0.01,CLR,,0.03,WeatherDisplay:10.37,2013-01-30 01:23:00,
2013-01-29 20:28:00,32.2,27.6,30.08,ESE,112,0.0,0.0,83,0.01,CLR,,0.03,WeatherDisplay:10.37,2013-01-30 01:28:00,
2013-01-29 20:33:00,32.2,27.6,30.08,NE,45,0.0,0.0,83,0.01,CLR,,0.03,WeatherDisplay:10.37,2013-01-30 01:33:00,
2013-01-29 20:38:00,32.4,27.8,30.08,East,90,0.0,0.0,83,0.01,CLR,,0.03,WeatherDisplay:10.37,2013-01-30 01:38:00,
2013-01-29 20:43:00,32.4,27.8,30.08,ENE,68,0.0,0.0,83,0.01,CLR,,0.03,WeatherDisplay:10.37,2013-01-30 01:43:00,
2013-01-29 20:48:00,32.4,27.8,30.08,SSE,158,0.0,0.0,83,0.01,CLR,,0.03,WeatherDisplay:10.37,2013-01-30 01:48:00,
2013-01-29 20:53:00,32.4,27.8,30.08,SSE,158,0.0,0.0,83,0.02,RA,,0.04,WeatherDisplay:10.37,2013-01-30 01:53:00,
2013-01-29 20:58:00,32.4,27.8,30.08,West,270,1.1,0.0,83,0.01,RA,,0.04,WeatherDisplay:10.37,2013-01-30 01:58:00,
2013-01-29 21:03:00,32.4,27.8,30.08,West,270,0.0,0.0,83,0.01,,,0.04,WeatherDisplay:10.37,2013-01-30 02:03:00,
2013-01-29 21:08:00,32.4,27.8,30.08,WSW,248,0.0,0.0,83,0.01,CLR,,0.04,WeatherDisplay:10.37,2013-01-30 02:08:00,
2013-01-29 21:13:00,32.4,27.8,30.08,South,180,0.0,0.0,83,0.01,CLR,,0.04,WeatherDisplay:10.37,2013-01-30 02:13:00,
2013-01-29 21:18:00,32.4,27.8,30.08,South,180,0.0,0.0,83,0.01,CLR,,0.04,WeatherDisplay:10.37,2013-01-30 02:18:00,
2013-01-29 21:23:00,32.4,27.8,30.08,South,180,0.0,0.0,83,0.01,CLR,,0.04,WeatherDisplay:10.37,2013-01-30 02:23:00,
2013-01-29 21:28:00,32.4,27.8,30.08,ESE,112,0.0,0.0,83,0.01,CLR,,0.04,WeatherDisplay:10.37,2013-01-30 02:28:00,
2013-01-29 21:33:00,32.4,27.8,30.08,South,180,0.0,0.0,83,0.01,CLR,,0.04,WeatherDisplay:10.37,2013-01-30 02:33:00,
2013-01-29 21:38:00,32.4,27.8,30.08,South,180,0.0,0.0,83,0.01,CLR,,0.04,WeatherDisplay:10.37,2013-01-30 02:38:00,
2013-01-29 21:43:00,32.4,27.8,30.08,East,90,0.0,0.0,83,0.01,CLR,,0.04,WeatherDisplay:10.37,2013-01-30 02:43:00,
2013-01-29 21:48:00,32.4,28.1,30.08,SSE,158,0.0,0.0,84,0.01,CLR,,0.04,WeatherDisplay:10.37,2013-01-30 02:48:00,
2013-01-29 21:53:00,32.2,27.9,30.08,South,180,0.0,0.0,84,0.00,CLR,,0.04,WeatherDisplay:10.37,2013-01-30 02:53:00,
2013-01-29 21:58:00,32.2,27.9,30.08,South,180,0.0,0.0,84,0.00,CLR,,0.04,WeatherDisplay:10.37,2013-01-30 02:58:00,
2013-01-29 22:04:00,32.2,28.2,30.07,SE,135,0.0,0.0,85,0.00,CLR,,0.04,WeatherDisplay:10.37,2013-01-30 03:04:00,
2013-01-29 22:09:00,32.2,28.2,30.07,ESE,112,2.3,2.3,85,0.00,CLR,,0.04,WeatherDisplay:10.37,2013-01-30 03:09:00,
2013-01-29 22:14:00,32.2,28.5,30.06,NNW,338,0.0,0.0,86,0.00,CLR,,0.04,WeatherDisplay:10.37,2013-01-30 03:14:00,
2013-01-29 22:19:00,32.2,28.8,30.06,SSE,158,0.0,0.0,87,0.00,CLR,,0.04,WeatherDisplay:10.37,2013-01-30 03:19:00,
2013-01-29 22:24:00,32.0,28.6,30.06,South,180,2.3,2.3,87,0.00,CLR,,0.04,WeatherDisplay:10.37,2013-01-30 03:24:00,
2013-01-29 22:29:00,32.0,28.8,30.06,East,90,0.0,0.0,88,0.00,CLR,,0.04,WeatherDisplay:10.37,2013-01-30 03:29:00,
2013-01-29 22:34:00,32.0,28.8,30.06,ESE,112,0.0,0.0,88,0.00,CLR,,0.04,WeatherDisplay:10.37,2013-01-30 03:34:00,
2013-01-29 22:39:00,32.0,28.8,30.06,ENE,68,0.0,0.0,88,0.00,CLR,,0.04,WeatherDisplay:10.37,2013-01-30 03:39:00,
2013-01-29 22:44:00,32.0,28.8,30.06,NNE,22,0.0,0.0,88,0.00,CLR,,0.04,WeatherDisplay:10.37,2013-01-30 03:44:00,
2013-01-29 22:49:00,32.0,28.8,30.06,NE,45,0.0,0.0,88,0.00,CLR,,0.04,WeatherDisplay:10.37,2013-01-30 03:49:00,
2013-01-29 22:54:00,32.0,28.8,30.06,NE,45,0.0,0.0,88,0.00,CLR,,0.04,WeatherDisplay:10.37,2013-01-30 03:54:00,
2013-01-29 22:59:00,31.8,28.7,30.06,NNE,22,0.0,0.0,88,0.00,CLR,,0.04,WeatherDisplay:10.37,2013-01-30 03:59:00,
2013-01-29 23:04:00,31.8,28.7,30.06,South,180,0.0,0.0,88,0.00,CLR,,0.04,WeatherDisplay:10.37,2013-01-30 04:04:00,
2013-01-29 23:09:00,31.8,28.7,30.06,NNE,22,0.0,0.0,88,0.00,CLR,,0.04,WeatherDisplay:10.37,2013-01-30 04:09:00,
2013-01-29 23:14:00,31.8,28.7,30.06,WSW,248,0.0,0.0,88,0.00,CLR,,0.04,WeatherDisplay:10.37,2013-01-30 04:14:00,
2013-01-29 23:19:00,31.8,28.7,30.06,South,180,0.0,0.0,88,0.00,CLR,,0.04,WeatherDisplay:10.37,2013-01-30 04:19:00,
2013-01-29 23:24:00,31.8,28.7,30.06,South,180,0.0,0.0,88,0.00,CLR,,0.04,WeatherDisplay:10.37,2013-01-30 04:24:00,
2013-01-29 23:29:00,31.8,28.7,30.05,WSW,248,0.0,0.0,88,0.01,RA,,0.05,WeatherDisplay:10.37,2013-01-30 04:29:00,
2013-01-29 23:34:00,31.8,28.9,30.05,SE,135,0.0,0.0,89,0.01,RA,,0.05,WeatherDisplay:10.37,2013-01-30 04:34:00,
2013-01-29 23:39:00,31.8,28.9,30.05,NNE,22,0.0,0.0,89,0.01,CLR,,0.05,WeatherDisplay:10.37,2013-01-30 04:39:00,
2013-01-29 23:44:00,31.8,28.9,30.05,NNE,22,0.0,0.0,89,0.01,CLR,,0.05,WeatherDisplay:10.37,2013-01-30 04:44:00,
2013-01-29 23:49:00,31.8,28.9,30.05,NNW,338,0.0,0.0,89,0.01,CLR,,0.05,WeatherDisplay:10.37,2013-01-30 04:49:00,
2013-01-29 23:54:00,31.8,28.9,30.05,SE,135,0.0,0.0,89,0.01,CLR,,0.05,WeatherDisplay:10.37,2013-01-30 04:54:00,
2013-01-29 23:59:00,31.8,28.9,30.05,NE,45,0.0,0.0,89,0.01,CLR,,0.05,WeatherDisplay:10.37,2013-01-30 04:59:00,